sensor_id;sensor_type;location;lat;lon;timestamp;pressure;altitude;pressure_sealevel;temperature;humidity
7834;BME280;3962;42.696;23.354;2023-04-23T00:00:14;95139.19;;;9.49;85.21
7834;BME280;3962;42.696;23.354;2023-04-23T00:02:42;95136.84;;;9.46;85.51
7834;BME280;3962;42.696;23.354;2023-04-23T00:05:12;95135.88;;;9.37;85.33
7834;BME280;3962;42.696;23.354;2023-04-23T00:07:41;95133.78;;;9.31;85.77
7834;BME280;3962;42.696;23.354;2023-04-23T00:10:09;95134.75;;;9.30;85.65
7834;BME280;3962;42.696;23.354;2023-04-23T00:12:36;95133.22;;;9.28;85.70
7834;BME280;3962;42.696;23.354;2023-04-23T00:15:05;95137.97;;;9.24;86.08
7834;BME280;3962;42.696;23.354;2023-04-23T00:17:32;95137.28;;;9.22;85.96
7834;BME280;3962;42.696;23.354;2023-04-23T00:19:59;95135.50;;;9.23;85.96
7834;BME280;3962;42.696;23.354;2023-04-23T00:22:26;95135.63;;;9.21;85.89
7834;BME280;3962;42.696;23.354;2023-04-23T00:24:54;95136.19;;;9.15;85.55
7834;BME280;3962;42.696;23.354;2023-04-23T00:27:22;95143.31;;;9.15;85.82
7834;BME280;3962;42.696;23.354;2023-04-23T00:29:52;95139.84;;;9.05;85.67
7834;BME280;3962;42.696;23.354;2023-04-23T00:32:19;95140.84;;;8.94;86.20
7834;BME280;3962;42.696;23.354;2023-04-23T00:34:46;95130.66;;;8.90;86.56
7834;BME280;3962;42.696;23.354;2023-04-23T00:37:14;95133.00;;;8.83;86.90
7834;BME280;3962;42.696;23.354;2023-04-23T00:39:41;95131.75;;;8.78;87.12
7834;BME280;3962;42.696;23.354;2023-04-23T00:42:09;95129.97;;;8.78;87.40
7834;BME280;3962;42.696;23.354;2023-04-23T00:44:37;95134.69;;;8.75;87.21
7834;BME280;3962;42.696;23.354;2023-04-23T00:47:04;95129.38;;;8.65;86.90
7834;BME280;3962;42.696;23.354;2023-04-23T00:49:32;95121.16;;;8.59;87.59
7834;BME280;3962;42.696;23.354;2023-04-23T00:51:59;95128.81;;;8.52;87.44
7834;BME280;3962;42.696;23.354;2023-04-23T00:54:26;95131.88;;;8.48;87.79
7834;BME280;3962;42.696;23.354;2023-04-23T00:56:54;95132.31;;;8.43;87.98
7834;BME280;3962;42.696;23.354;2023-04-23T00:59:24;95140.81;;;8.47;87.55
7834;BME280;3962;42.696;23.354;2023-04-23T01:01:51;95143.75;;;8.44;87.33
7834;BME280;3962;42.696;23.354;2023-04-23T01:04:19;95136.78;;;8.43;88.63
7834;BME280;3962;42.696;23.354;2023-04-23T01:06:47;95146.41;;;8.44;88.78
7834;BME280;3962;42.696;23.354;2023-04-23T01:09:14;95142.22;;;8.41;89.35
7834;BME280;3962;42.696;23.354;2023-04-23T01:11:43;95140.13;;;8.45;89.36
7834;BME280;3962;42.696;23.354;2023-04-23T01:14:10;95138.72;;;8.41;89.28
7834;BME280;3962;42.696;23.354;2023-04-23T01:16:38;95126.16;;;8.33;90.25
7834;BME280;3962;42.696;23.354;2023-04-23T01:19:06;95137.44;;;8.35;89.61
7834;BME280;3962;42.696;23.354;2023-04-23T01:21:33;95137.19;;;8.29;90.26
7834;BME280;3962;42.696;23.354;2023-04-23T01:24:02;95138.28;;;8.26;90.09
7834;BME280;3962;42.696;23.354;2023-04-23T01:26:29;95132.41;;;8.23;90.53
7834;BME280;3962;42.696;23.354;2023-04-23T01:28:56;95128.22;;;8.20;90.27
7834;BME280;3962;42.696;23.354;2023-04-23T01:31:24;95134.25;;;8.22;90.79
7834;BME280;3962;42.696;23.354;2023-04-23T01:33:52;95137.72;;;8.23;90.45
7834;BME280;3962;42.696;23.354;2023-04-23T01:36:20;95145.78;;;8.21;90.57
7834;BME280;3962;42.696;23.354;2023-04-23T01:38:48;95151.34;;;8.18;90.70
7834;BME280;3962;42.696;23.354;2023-04-23T01:41:16;95142.81;;;8.15;90.73
7834;BME280;3962;42.696;23.354;2023-04-23T01:43:44;95153.84;;;8.10;91.10
7834;BME280;3962;42.696;23.354;2023-04-23T01:46:12;95146.59;;;8.03;90.93
7834;BME280;3962;42.696;23.354;2023-04-23T01:48:39;95148.66;;;8.09;90.50
7834;BME280;3962;42.696;23.354;2023-04-23T01:51:06;95137.66;;;8.04;90.76
7834;BME280;3962;42.696;23.354;2023-04-23T01:53:33;95150.50;;;8.08;90.33
7834;BME280;3962;42.696;23.354;2023-04-23T01:56:00;95150.91;;;8.04;90.68
7834;BME280;3962;42.696;23.354;2023-04-23T01:58:29;95152.97;;;8.10;90.67
7834;BME280;3962;42.696;23.354;2023-04-23T02:00:56;95154.41;;;8.14;90.60
7834;BME280;3962;42.696;23.354;2023-04-23T02:03:23;95149.63;;;8.08;90.01
7834;BME280;3962;42.696;23.354;2023-04-23T02:05:51;95147.41;;;8.03;89.88
7834;BME280;3962;42.696;23.354;2023-04-23T02:08:19;95146.97;;;7.98;90.27
7834;BME280;3962;42.696;23.354;2023-04-23T02:10:46;95143.19;;;8.01;90.99
7834;BME280;3962;42.696;23.354;2023-04-23T02:13:12;95151.44;;;7.98;90.39
7834;BME280;3962;42.696;23.354;2023-04-23T02:15:41;95154.22;;;7.96;90.73
7834;BME280;3962;42.696;23.354;2023-04-23T02:18:08;95147.94;;;7.97;91.07
7834;BME280;3962;42.696;23.354;2023-04-23T02:20:36;95148.97;;;7.76;90.92
7834;BME280;3962;42.696;23.354;2023-04-23T02:23:05;95154.72;;;7.51;92.58
7834;BME280;3962;42.696;23.354;2023-04-23T02:25:32;95154.16;;;7.47;92.67
7834;BME280;3962;42.696;23.354;2023-04-23T02:27:59;95152.97;;;7.61;93.14
7834;BME280;3962;42.696;23.354;2023-04-23T02:30:30;95157.69;;;7.57;91.78
7834;BME280;3962;42.696;23.354;2023-04-23T02:32:58;95160.91;;;7.61;91.88
7834;BME280;3962;42.696;23.354;2023-04-23T02:35:25;95158.94;;;7.63;92.41
7834;BME280;3962;42.696;23.354;2023-04-23T02:37:52;95149.72;;;7.57;92.36
7834;BME280;3962;42.696;23.354;2023-04-23T02:40:19;95163.16;;;7.65;91.41
7834;BME280;3962;42.696;23.354;2023-04-23T02:42:46;95153.28;;;7.67;91.89
7834;BME280;3962;42.696;23.354;2023-04-23T02:45:13;95159.28;;;7.69;91.93
7834;BME280;3962;42.696;23.354;2023-04-23T02:47:40;95153.41;;;7.66;90.99
7834;BME280;3962;42.696;23.354;2023-04-23T02:50:09;95156.50;;;7.71;91.77
7834;BME280;3962;42.696;23.354;2023-04-23T02:52:36;95164.44;;;7.71;91.44
7834;BME280;3962;42.696;23.354;2023-04-23T02:55:03;95161.22;;;7.67;90.38
7834;BME280;3962;42.696;23.354;2023-04-23T02:57:30;95160.91;;;7.61;90.57
7834;BME280;3962;42.696;23.354;2023-04-23T02:59:57;95156.75;;;7.68;91.71
7834;BME280;3962;42.696;23.354;2023-04-23T03:02:23;95152.56;;;7.65;91.30
7834;BME280;3962;42.696;23.354;2023-04-23T03:04:50;95160.66;;;7.73;90.95
7834;BME280;3962;42.696;23.354;2023-04-23T03:07:18;95166.81;;;7.74;90.79
7834;BME280;3962;42.696;23.354;2023-04-23T03:09:45;95162.06;;;7.68;90.50
7834;BME280;3962;42.696;23.354;2023-04-23T03:12:12;95168.31;;;7.67;90.49
7834;BME280;3962;42.696;23.354;2023-04-23T03:14:39;95164.25;;;7.63;89.79
7834;BME280;3962;42.696;23.354;2023-04-23T03:17:06;95166.34;;;7.59;90.09
7834;BME280;3962;42.696;23.354;2023-04-23T03:19:32;95170.91;;;7.57;90.88
7834;BME280;3962;42.696;23.354;2023-04-23T03:21:59;95169.53;;;7.53;89.90
7834;BME280;3962;42.696;23.354;2023-04-23T03:24:29;95167.69;;;7.54;90.47
7834;BME280;3962;42.696;23.354;2023-04-23T03:26:57;95173.84;;;7.54;91.13
7834;BME280;3962;42.696;23.354;2023-04-23T03:29:24;95176.47;;;7.54;90.51
7834;BME280;3962;42.696;23.354;2023-04-23T03:31:51;95177.47;;;7.53;90.08
7834;BME280;3962;42.696;23.354;2023-04-23T03:34:17;95175.44;;;7.46;90.76
7834;BME280;3962;42.696;23.354;2023-04-23T03:36:44;95185.63;;;7.41;90.84
7834;BME280;3962;42.696;23.354;2023-04-23T03:39:13;95179.97;;;7.34;90.22
7834;BME280;3962;42.696;23.354;2023-04-23T03:41:41;95189.03;;;7.32;90.32
7834;BME280;3962;42.696;23.354;2023-04-23T03:44:08;95185.66;;;7.30;91.22
7834;BME280;3962;42.696;23.354;2023-04-23T03:46:34;95183.28;;;7.27;91.24
7834;BME280;3962;42.696;23.354;2023-04-23T03:49:01;95177.41;;;7.23;90.41
7834;BME280;3962;42.696;23.354;2023-04-23T03:51:28;95184.66;;;7.21;91.40
7834;BME280;3962;42.696;23.354;2023-04-23T03:53:56;95188.13;;;7.22;91.19
7834;BME280;3962;42.696;23.354;2023-04-23T03:56:22;95184.38;;;7.24;90.68
7834;BME280;3962;42.696;23.354;2023-04-23T03:58:51;95192.06;;;7.27;90.40
7834;BME280;3962;42.696;23.354;2023-04-23T04:01:18;95200.84;;;7.28;90.42
7834;BME280;3962;42.696;23.354;2023-04-23T04:03:45;95197.50;;;7.26;90.65
7834;BME280;3962;42.696;23.354;2023-04-23T04:06:11;95196.13;;;7.31;90.33
7834;BME280;3962;42.696;23.354;2023-04-23T04:08:38;95198.06;;;7.29;91.17
7834;BME280;3962;42.696;23.354;2023-04-23T04:11:05;95188.19;;;7.31;90.46
7834;BME280;3962;42.696;23.354;2023-04-23T04:13:32;95201.16;;;7.34;90.58
7834;BME280;3962;42.696;23.354;2023-04-23T04:16:00;95200.06;;;7.37;90.55
7834;BME280;3962;42.696;23.354;2023-04-23T04:18:27;95202.59;;;7.38;89.90
7834;BME280;3962;42.696;23.354;2023-04-23T04:20:54;95204.97;;;7.41;89.81
7834;BME280;3962;42.696;23.354;2023-04-23T04:23:21;95202.47;;;7.40;89.87
7834;BME280;3962;42.696;23.354;2023-04-23T04:25:48;95197.47;;;7.46;90.51
7834;BME280;3962;42.696;23.354;2023-04-23T04:28:16;95194.56;;;7.49;89.95
7834;BME280;3962;42.696;23.354;2023-04-23T04:30:43;95213.81;;;7.51;90.03
7834;BME280;3962;42.696;23.354;2023-04-23T04:33:11;95208.94;;;7.56;89.95
7834;BME280;3962;42.696;23.354;2023-04-23T04:35:39;95203.97;;;7.63;89.63
7834;BME280;3962;42.696;23.354;2023-04-23T04:38:06;95211.97;;;7.72;89.12
7834;BME280;3962;42.696;23.354;2023-04-23T04:40:33;95207.94;;;7.78;89.03
7834;BME280;3962;42.696;23.354;2023-04-23T04:43:00;95211.50;;;7.88;88.83
7834;BME280;3962;42.696;23.354;2023-04-23T04:45:29;95218.47;;;7.89;88.29
7834;BME280;3962;42.696;23.354;2023-04-23T04:47:56;95217.63;;;7.88;87.57
7834;BME280;3962;42.696;23.354;2023-04-23T04:50:24;95222.88;;;7.79;87.65
7834;BME280;3962;42.696;23.354;2023-04-23T04:52:51;95222.75;;;7.80;88.50
7834;BME280;3962;42.696;23.354;2023-04-23T04:55:18;95242.13;;;7.81;87.97
7834;BME280;3962;42.696;23.354;2023-04-23T04:57:45;95232.50;;;7.80;88.62
7834;BME280;3962;42.696;23.354;2023-04-23T05:00:22;95227.34;;;7.78;87.81
7834;BME280;3962;42.696;23.354;2023-04-23T05:02:51;95231.38;;;7.82;88.56
7834;BME280;3962;42.696;23.354;2023-04-23T05:05:18;95231.53;;;7.81;88.14
7834;BME280;3962;42.696;23.354;2023-04-23T05:07:47;95231.25;;;7.84;87.93
7834;BME280;3962;42.696;23.354;2023-04-23T05:10:14;95231.00;;;7.87;88.21
7834;BME280;3962;42.696;23.354;2023-04-23T05:12:41;95234.66;;;7.95;88.14
7834;BME280;3962;42.696;23.354;2023-04-23T05:15:09;95226.06;;;8.03;88.10
7834;BME280;3962;42.696;23.354;2023-04-23T05:17:38;95228.59;;;8.14;88.19
7834;BME280;3962;42.696;23.354;2023-04-23T05:20:06;95237.09;;;8.08;86.97
7834;BME280;3962;42.696;23.354;2023-04-23T05:22:35;95225.09;;;8.13;87.72
7834;BME280;3962;42.696;23.354;2023-04-23T05:25:04;95249.03;;;8.23;87.43
7834;BME280;3962;42.696;23.354;2023-04-23T05:27:31;95235.28;;;8.38;87.43
7834;BME280;3962;42.696;23.354;2023-04-23T05:29:59;95230.16;;;8.46;86.48
7834;BME280;3962;42.696;23.354;2023-04-23T05:32:26;95241.19;;;8.61;86.73
7834;BME280;3962;42.696;23.354;2023-04-23T05:34:53;95235.19;;;8.68;86.09
7834;BME280;3962;42.696;23.354;2023-04-23T05:37:20;95237.59;;;8.71;85.62
7834;BME280;3962;42.696;23.354;2023-04-23T05:39:47;95245.53;;;8.71;85.55
7834;BME280;3962;42.696;23.354;2023-04-23T05:42:15;95239.81;;;8.76;85.79
7834;BME280;3962;42.696;23.354;2023-04-23T05:44:42;95233.97;;;8.91;86.20
7834;BME280;3962;42.696;23.354;2023-04-23T05:47:10;95232.84;;;8.94;84.50
7834;BME280;3962;42.696;23.354;2023-04-23T05:49:37;95235.25;;;8.97;84.35
7834;BME280;3962;42.696;23.354;2023-04-23T05:52:04;95235.94;;;9.18;84.75
7834;BME280;3962;42.696;23.354;2023-04-23T05:54:31;95233.84;;;9.21;83.96
7834;BME280;3962;42.696;23.354;2023-04-23T05:56:58;95236.75;;;9.37;83.85
7834;BME280;3962;42.696;23.354;2023-04-23T05:59:26;95235.09;;;9.46;83.64
7834;BME280;3962;42.696;23.354;2023-04-23T06:01:53;95240.53;;;9.35;83.92
7834;BME280;3962;42.696;23.354;2023-04-23T06:04:20;95240.28;;;9.38;84.51
7834;BME280;3962;42.696;23.354;2023-04-23T06:06:47;95240.66;;;9.43;84.21
7834;BME280;3962;42.696;23.354;2023-04-23T06:09:14;95238.72;;;9.45;84.06
7834;BME280;3962;42.696;23.354;2023-04-23T06:11:41;95241.38;;;9.45;83.96
7834;BME280;3962;42.696;23.354;2023-04-23T06:14:10;95233.13;;;9.48;84.20
7834;BME280;3962;42.696;23.354;2023-04-23T06:16:38;95240.22;;;9.57;84.42
7834;BME280;3962;42.696;23.354;2023-04-23T06:19:05;95233.50;;;9.62;83.96
7834;BME280;3962;42.696;23.354;2023-04-23T06:21:31;95226.81;;;9.68;84.19
7834;BME280;3962;42.696;23.354;2023-04-23T06:23:58;95233.19;;;9.84;84.04
7834;BME280;3962;42.696;23.354;2023-04-23T06:26:25;95234.41;;;10.09;83.37
7834;BME280;3962;42.696;23.354;2023-04-23T06:28:52;95226.34;;;10.28;82.81
7834;BME280;3962;42.696;23.354;2023-04-23T06:31:19;95223.75;;;10.45;82.01
7834;BME280;3962;42.696;23.354;2023-04-23T06:33:47;95236.25;;;10.62;81.23
7834;BME280;3962;42.696;23.354;2023-04-23T06:36:14;95233.28;;;10.65;80.35
7834;BME280;3962;42.696;23.354;2023-04-23T06:38:41;95233.53;;;10.72;81.25
7834;BME280;3962;42.696;23.354;2023-04-23T06:41:09;95234.31;;;10.82;80.28
7834;BME280;3962;42.696;23.354;2023-04-23T06:43:37;95234.84;;;10.85;79.96
7834;BME280;3962;42.696;23.354;2023-04-23T06:46:04;95234.09;;;10.92;80.89
7834;BME280;3962;42.696;23.354;2023-04-23T06:48:31;95235.94;;;11.09;80.09
7834;BME280;3962;42.696;23.354;2023-04-23T06:50:59;95237.13;;;11.32;79.30
7834;BME280;3962;42.696;23.354;2023-04-23T06:53:26;95234.94;;;11.45;78.67
7834;BME280;3962;42.696;23.354;2023-04-23T06:55:53;95227.78;;;11.63;78.69
7834;BME280;3962;42.696;23.354;2023-04-23T06:58:19;95230.69;;;11.70;78.02
7834;BME280;3962;42.696;23.354;2023-04-23T07:00:47;95232.41;;;11.79;77.53
7834;BME280;3962;42.696;23.354;2023-04-23T07:03:14;95233.06;;;11.98;77.36
7834;BME280;3962;42.696;23.354;2023-04-23T07:05:41;95225.88;;;12.58;76.07
7834;BME280;3962;42.696;23.354;2023-04-23T07:08:09;95232.63;;;13.99;72.35
7834;BME280;3962;42.696;23.354;2023-04-23T07:10:37;95245.41;;;15.28;66.44
7834;BME280;3962;42.696;23.354;2023-04-23T07:13:04;95239.59;;;16.15;62.69
7834;BME280;3962;42.696;23.354;2023-04-23T07:15:31;95237.47;;;16.62;60.43
7834;BME280;3962;42.696;23.354;2023-04-23T07:17:58;95231.44;;;17.95;57.01
7834;BME280;3962;42.696;23.354;2023-04-23T07:20:25;95238.09;;;18.20;55.60
7834;BME280;3962;42.696;23.354;2023-04-23T07:22:51;95226.50;;;17.99;55.55
7834;BME280;3962;42.696;23.354;2023-04-23T07:25:23;95226.72;;;17.76;55.97
7834;BME280;3962;42.696;23.354;2023-04-23T07:27:51;95229.00;;;17.79;55.30
7834;BME280;3962;42.696;23.354;2023-04-23T07:30:18;95224.31;;;17.46;56.21
7834;BME280;3962;42.696;23.354;2023-04-23T07:32:51;95222.16;;;17.98;55.14
7834;BME280;3962;42.696;23.354;2023-04-23T07:35:18;95228.69;;;18.92;52.82
7834;BME280;3962;42.696;23.354;2023-04-23T07:37:45;95227.25;;;18.96;51.61
7834;BME280;3962;42.696;23.354;2023-04-23T07:40:11;95230.75;;;19.24;51.64
7834;BME280;3962;42.696;23.354;2023-04-23T07:42:40;95221.72;;;18.70;52.30
7834;BME280;3962;42.696;23.354;2023-04-23T07:45:08;95220.69;;;17.95;53.62
7834;BME280;3962;42.696;23.354;2023-04-23T07:47:35;95220.59;;;17.32;56.24
7834;BME280;3962;42.696;23.354;2023-04-23T07:50:03;95225.44;;;17.37;55.58
7834;BME280;3962;42.696;23.354;2023-04-23T07:52:29;95227.28;;;17.72;55.79
7834;BME280;3962;42.696;23.354;2023-04-23T07:54:56;95228.59;;;18.24;54.90
7834;BME280;3962;42.696;23.354;2023-04-23T07:57:23;95229.59;;;19.05;51.76
7834;BME280;3962;42.696;23.354;2023-04-23T07:59:51;95219.50;;;18.25;51.96
7834;BME280;3962;42.696;23.354;2023-04-23T08:02:18;95234.84;;;16.83;55.77
7834;BME280;3962;42.696;23.354;2023-04-23T08:04:48;95222.09;;;16.85;56.81
7834;BME280;3962;42.696;23.354;2023-04-23T08:07:14;95220.75;;;17.60;55.74
7834;BME280;3962;42.696;23.354;2023-04-23T08:09:41;95222.28;;;18.99;52.62
7834;BME280;3962;42.696;23.354;2023-04-23T08:12:08;95217.47;;;19.22;50.21
7834;BME280;3962;42.696;23.354;2023-04-23T08:14:35;95220.47;;;19.06;50.44
7834;BME280;3962;42.696;23.354;2023-04-23T08:17:03;95223.34;;;18.65;52.03
7834;BME280;3962;42.696;23.354;2023-04-23T08:19:30;95218.44;;;18.75;51.77
7834;BME280;3962;42.696;23.354;2023-04-23T08:21:58;95218.75;;;18.99;50.92
7834;BME280;3962;42.696;23.354;2023-04-23T08:24:25;95217.25;;;18.90;51.52
7834;BME280;3962;42.696;23.354;2023-04-23T08:26:52;95219.69;;;19.12;50.55
7834;BME280;3962;42.696;23.354;2023-04-23T08:29:18;95218.53;;;19.34;49.72
7834;BME280;3962;42.696;23.354;2023-04-23T08:31:45;95206.25;;;17.61;52.20
7834;BME280;3962;42.696;23.354;2023-04-23T08:34:14;95211.72;;;16.67;55.92
7834;BME280;3962;42.696;23.354;2023-04-23T08:36:41;95203.78;;;17.59;53.67
7834;BME280;3962;42.696;23.354;2023-04-23T08:39:08;95204.75;;;18.49;50.83
7834;BME280;3962;42.696;23.354;2023-04-23T08:41:38;95208.41;;;19.49;49.51
7834;BME280;3962;42.696;23.354;2023-04-23T08:44:11;95210.66;;;19.39;49.89
7834;BME280;3962;42.696;23.354;2023-04-23T08:46:41;95200.31;;;18.62;51.01
7834;BME280;3962;42.696;23.354;2023-04-23T08:49:14;95194.78;;;18.70;50.88
7834;BME280;3962;42.696;23.354;2023-04-23T08:51:45;95204.06;;;18.34;51.10
7834;BME280;3962;42.696;23.354;2023-04-23T08:54:17;95194.22;;;17.78;52.08
7834;BME280;3962;42.696;23.354;2023-04-23T08:56:45;95193.97;;;17.73;52.53
7834;BME280;3962;42.696;23.354;2023-04-23T08:59:12;95191.84;;;18.38;51.13
7834;BME280;3962;42.696;23.354;2023-04-23T09:01:40;95184.53;;;18.99;50.33
7834;BME280;3962;42.696;23.354;2023-04-23T09:04:07;95183.63;;;19.20;49.27
7834;BME280;3962;42.696;23.354;2023-04-23T09:06:36;95181.50;;;19.09;48.23
7834;BME280;3962;42.696;23.354;2023-04-23T09:09:05;95193.06;;;19.03;48.92
7834;BME280;3962;42.696;23.354;2023-04-23T09:11:32;95184.81;;;19.17;48.33
7834;BME280;3962;42.696;23.354;2023-04-23T09:14:02;95188.75;;;19.68;47.77
7834;BME280;3962;42.696;23.354;2023-04-23T09:16:30;95186.97;;;20.14;46.84
7834;BME280;3962;42.696;23.354;2023-04-23T09:18:57;95182.50;;;19.74;47.06
7834;BME280;3962;42.696;23.354;2023-04-23T09:21:25;95174.19;;;18.63;48.86
7834;BME280;3962;42.696;23.354;2023-04-23T09:23:53;95176.34;;;17.91;50.00
7834;BME280;3962;42.696;23.354;2023-04-23T09:26:21;95170.28;;;18.10;49.91
7834;BME280;3962;42.696;23.354;2023-04-23T09:28:48;95170.63;;;18.96;48.45
7834;BME280;3962;42.696;23.354;2023-04-23T09:31:19;95167.28;;;19.34;46.52
7834;BME280;3962;42.696;23.354;2023-04-23T09:33:51;95173.19;;;19.64;46.15
7834;BME280;3962;42.696;23.354;2023-04-23T09:36:20;95162.81;;;19.80;46.20
7834;BME280;3962;42.696;23.354;2023-04-23T09:38:48;95162.00;;;19.80;45.93
7834;BME280;3962;42.696;23.354;2023-04-23T09:41:23;95159.88;;;19.56;46.63
7834;BME280;3962;42.696;23.354;2023-04-23T09:43:52;95152.22;;;19.85;45.99
7834;BME280;3962;42.696;23.354;2023-04-23T09:46:31;95151.16;;;19.73;45.57
7834;BME280;3962;42.696;23.354;2023-04-23T09:49:00;95143.88;;;19.61;45.72
7834;BME280;3962;42.696;23.354;2023-04-23T09:51:29;95144.50;;;19.43;46.09
7834;BME280;3962;42.696;23.354;2023-04-23T09:53:56;95142.41;;;19.45;45.79
7834;BME280;3962;42.696;23.354;2023-04-23T09:56:25;95129.75;;;19.52;45.67
7834;BME280;3962;42.696;23.354;2023-04-23T09:58:52;95133.03;;;19.28;45.75
7834;BME280;3962;42.696;23.354;2023-04-23T10:01:26;95125.84;;;19.55;44.77
7834;BME280;3962;42.696;23.354;2023-04-23T10:03:54;95129.03;;;19.18;45.56
7834;BME280;3962;42.696;23.354;2023-04-23T10:06:29;95123.19;;;18.61;45.85
7834;BME280;3962;42.696;23.354;2023-04-23T10:08:57;95124.19;;;18.54;46.28
7834;BME280;3962;42.696;23.354;2023-04-23T10:11:25;95121.91;;;18.57;45.71
7834;BME280;3962;42.696;23.354;2023-04-23T10:13:54;95118.88;;;19.20;45.03
7834;BME280;3962;42.696;23.354;2023-04-23T10:16:21;95114.34;;;19.20;43.97
7834;BME280;3962;42.696;23.354;2023-04-23T10:18:50;95110.78;;;19.20;43.81
7834;BME280;3962;42.696;23.354;2023-04-23T10:21:24;95113.88;;;19.17;43.35
7834;BME280;3962;42.696;23.354;2023-04-23T10:23:53;95116.03;;;19.54;42.80
7834;BME280;3962;42.696;23.354;2023-04-23T10:26:24;95106.91;;;19.35;43.53
7834;BME280;3962;42.696;23.354;2023-04-23T10:28:53;95099.47;;;19.83;42.18
7834;BME280;3962;42.696;23.354;2023-04-23T10:31:21;95091.31;;;19.24;40.50
7834;BME280;3962;42.696;23.354;2023-04-23T10:33:48;95088.50;;;18.92;40.82
7834;BME280;3962;42.696;23.354;2023-04-23T10:36:16;95090.22;;;19.12;40.20
7834;BME280;3962;42.696;23.354;2023-04-23T10:38:44;95082.19;;;19.45;39.20
7834;BME280;3962;42.696;23.354;2023-04-23T10:41:15;95077.47;;;20.12;39.50
7834;BME280;3962;42.696;23.354;2023-04-23T10:43:44;95081.63;;;20.78;38.52
7834;BME280;3962;42.696;23.354;2023-04-23T10:46:27;95070.97;;;20.96;36.90
7834;BME280;3962;42.696;23.354;2023-04-23T10:49:15;95075.38;;;20.90;36.15
7834;BME280;3962;42.696;23.354;2023-04-23T10:51:45;95070.47;;;21.18;36.22
7834;BME280;3962;42.696;23.354;2023-04-23T10:54:13;95066.78;;;20.36;37.71
7834;BME280;3962;42.696;23.354;2023-04-23T10:56:41;95067.69;;;20.04;38.33
7834;BME280;3962;42.696;23.354;2023-04-23T10:59:18;95060.44;;;20.05;38.97
7834;BME280;3962;42.696;23.354;2023-04-23T11:01:47;95049.94;;;20.41;36.80
7834;BME280;3962;42.696;23.354;2023-04-23T11:04:19;95057.09;;;20.03;37.43
7834;BME280;3962;42.696;23.354;2023-04-23T11:06:57;95043.97;;;20.83;36.29
7834;BME280;3962;42.696;23.354;2023-04-23T11:09:28;95051.88;;;21.28;36.41
7834;BME280;3962;42.696;23.354;2023-04-23T11:11:56;95043.56;;;20.79;37.24
7834;BME280;3962;42.696;23.354;2023-04-23T11:14:36;95043.31;;;21.31;37.12
7834;BME280;3962;42.696;23.354;2023-04-23T11:17:04;95031.63;;;21.68;35.61
7834;BME280;3962;42.696;23.354;2023-04-23T11:19:34;95025.66;;;21.53;36.62
7834;BME280;3962;42.696;23.354;2023-04-23T11:22:03;95028.75;;;20.95;36.86
7834;BME280;3962;42.696;23.354;2023-04-23T11:24:32;95018.78;;;20.95;35.62
7834;BME280;3962;42.696;23.354;2023-04-23T11:27:04;95014.97;;;20.52;35.20
7834;BME280;3962;42.696;23.354;2023-04-23T11:29:31;95009.03;;;20.31;35.78
7834;BME280;3962;42.696;23.354;2023-04-23T11:32:00;95013.88;;;19.90;35.20
7834;BME280;3962;42.696;23.354;2023-04-23T11:34:27;95007.63;;;20.09;35.83
7834;BME280;3962;42.696;23.354;2023-04-23T11:36:57;95015.31;;;20.18;37.78
7834;BME280;3962;42.696;23.354;2023-04-23T11:39:25;95015.38;;;19.73;39.06
7834;BME280;3962;42.696;23.354;2023-04-23T11:41:52;95008.31;;;19.72;38.54
7834;BME280;3962;42.696;23.354;2023-04-23T11:44:20;95004.84;;;20.41;38.10
7834;BME280;3962;42.696;23.354;2023-04-23T11:46:48;95004.59;;;21.00;36.99
7834;BME280;3962;42.696;23.354;2023-04-23T11:49:18;95001.81;;;21.44;36.23
7834;BME280;3962;42.696;23.354;2023-04-23T11:51:47;95001.56;;;21.14;36.62
7834;BME280;3962;42.696;23.354;2023-04-23T11:54:15;94995.69;;;21.24;35.88
7834;BME280;3962;42.696;23.354;2023-04-23T11:56:44;94998.00;;;20.89;35.24
7834;BME280;3962;42.696;23.354;2023-04-23T11:59:11;94996.34;;;20.88;35.12
7834;BME280;3962;42.696;23.354;2023-04-23T12:01:40;94992.13;;;20.92;34.99
7834;BME280;3962;42.696;23.354;2023-04-23T12:04:15;94990.09;;;20.81;35.22
7834;BME280;3962;42.696;23.354;2023-04-23T12:06:49;94986.84;;;20.66;35.08
7834;BME280;3962;42.696;23.354;2023-04-23T12:09:17;94977.41;;;20.88;34.50
7834;BME280;3962;42.696;23.354;2023-04-23T12:11:46;94983.09;;;21.67;33.90
7834;BME280;3962;42.696;23.354;2023-04-23T12:14:15;94983.72;;;21.38;33.42
7834;BME280;3962;42.696;23.354;2023-04-23T12:16:44;94985.50;;;20.44;33.66
7834;BME280;3962;42.696;23.354;2023-04-23T12:19:13;94984.56;;;20.13;34.92
7834;BME280;3962;42.696;23.354;2023-04-23T12:21:49;94978.00;;;19.76;35.53
7834;BME280;3962;42.696;23.354;2023-04-23T12:24:19;94982.56;;;19.56;35.52
7834;BME280;3962;42.696;23.354;2023-04-23T12:26:51;94974.06;;;19.53;36.03
7834;BME280;3962;42.696;23.354;2023-04-23T12:29:28;94971.34;;;19.53;35.97
7834;BME280;3962;42.696;23.354;2023-04-23T12:31:57;94969.31;;;19.22;36.27
7834;BME280;3962;42.696;23.354;2023-04-23T12:34:25;94964.25;;;19.84;35.56
7834;BME280;3962;42.696;23.354;2023-04-23T12:37:05;94962.22;;;19.60;35.82
7834;BME280;3962;42.696;23.354;2023-04-23T12:39:33;94958.09;;;19.51;35.54
7834;BME280;3962;42.696;23.354;2023-04-23T12:42:03;94957.06;;;19.20;36.30
7834;BME280;3962;42.696;23.354;2023-04-23T12:44:31;94952.66;;;19.06;35.99
7834;BME280;3962;42.696;23.354;2023-04-23T12:47:00;94960.31;;;19.02;36.17
7834;BME280;3962;42.696;23.354;2023-04-23T12:49:29;94957.41;;;18.84;36.39
7834;BME280;3962;42.696;23.354;2023-04-23T12:51:57;94951.78;;;18.67;37.13
7834;BME280;3962;42.696;23.354;2023-04-23T12:54:28;94954.06;;;18.63;36.79
7834;BME280;3962;42.696;23.354;2023-04-23T12:56:56;94944.94;;;18.58;36.57
7834;BME280;3962;42.696;23.354;2023-04-23T12:59:24;94954.91;;;18.70;36.78
7834;BME280;3962;42.696;23.354;2023-04-23T13:01:52;94952.41;;;18.62;36.76
7834;BME280;3962;42.696;23.354;2023-04-23T13:04:19;94955.91;;;18.56;36.36
7834;BME280;3962;42.696;23.354;2023-04-23T13:06:46;94954.44;;;18.47;36.36
7834;BME280;3962;42.696;23.354;2023-04-23T13:09:13;94949.22;;;18.46;36.30
7834;BME280;3962;42.696;23.354;2023-04-23T13:11:42;94952.16;;;18.51;35.97
7834;BME280;3962;42.696;23.354;2023-04-23T13:14:08;94950.31;;;18.71;35.66
7834;BME280;3962;42.696;23.354;2023-04-23T13:16:35;94943.31;;;19.08;34.96
7834;BME280;3962;42.696;23.354;2023-04-23T13:19:03;94938.56;;;19.17;35.40
7834;BME280;3962;42.696;23.354;2023-04-23T13:21:30;94937.56;;;19.37;35.36